sensor_id;sensor_type;location;lat;lon;timestamp;P1;durP1;ratioP1;P2;durP2;ratioP2
14736;SDS011;7459;53.590;10.062;2023-03-14T00:00:47;7.63;;;2.00;;
14736;SDS011;7459;53.590;10.062;2023-03-14T00:03:13;7.67;;;1.60;;
14736;SDS011;7459;53.590;10.062;2023-03-14T00:05:39;7.87;;;1.77;;
14736;SDS011;7459;53.590;10.062;2023-03-14T00:08:04;7.00;;;1.50;;
14736;SDS011;7459;53.590;10.062;2023-03-14T00:10:30;5.43;;;1.50;;
14736;SDS011;7459;53.590;10.062;2023-03-14T00:12:56;5.00;;;2.00;;
14736;SDS011;7459;53.590;10.062;2023-03-14T00:15:22;7.38;;;2.28;;
14736;SDS011;7459;53.590;10.062;2023-03-14T00:17:47;7.13;;;1.70;;
14736;SDS011;7459;53.590;10.062;2023-03-14T00:20:13;8.02;;;1.90;;
14736;SDS011;7459;53.590;10.062;2023-03-14T00:22:39;4.83;;;1.53;;
14736;SDS011;7459;53.590;10.062;2023-03-14T00:25:06;10.02;;;1.65;;
14736;SDS011;7459;53.590;10.062;2023-03-14T00:27:33;8.13;;;2.00;;
14736;SDS011;7459;53.590;10.062;2023-03-14T00:30:00;6.43;;;1.80;;
14736;SDS011;7459;53.590;10.062;2023-03-14T00:32:26;6.37;;;1.57;;
14736;SDS011;7459;53.590;10.062;2023-03-14T00:34:52;7.38;;;1.50;;
14736;SDS011;7459;53.590;10.062;2023-03-14T00:37:17;7.47;;;2.00;;
14736;SDS011;7459;53.590;10.062;2023-03-14T00:39:43;5.63;;;1.60;;
14736;SDS011;7459;53.590;10.062;2023-03-14T00:42:09;10.63;;;2.20;;
14736;SDS011;7459;53.590;10.062;2023-03-14T00:44:35;7.73;;;1.97;;
14736;SDS011;7459;53.590;10.062;2023-03-14T00:47:00;5.50;;;1.48;;
14736;SDS011;7459;53.590;10.062;2023-03-14T00:49:26;6.33;;;1.60;;
14736;SDS011;7459;53.590;10.062;2023-03-14T00:51:52;8.40;;;1.50;;
14736;SDS011;7459;53.590;10.062;2023-03-14T00:54:18;8.77;;;1.90;;
14736;SDS011;7459;53.590;10.062;2023-03-14T00:56:45;5.65;;;1.48;;
14736;SDS011;7459;53.590;10.062;2023-03-14T00:59:10;6.53;;;1.38;;
14736;SDS011;7459;53.590;10.062;2023-03-14T01:01:36;8.07;;;1.60;;
14736;SDS011;7459;53.590;10.062;2023-03-14T01:04:03;11.50;;;1.90;;
14736;SDS011;7459;53.590;10.062;2023-03-14T01:06:29;8.53;;;1.67;;
14736;SDS011;7459;53.590;10.062;2023-03-14T01:08:55;9.63;;;1.42;;
14736;SDS011;7459;53.590;10.062;2023-03-14T01:11:25;10.85;;;1.40;;
14736;SDS011;7459;53.590;10.062;2023-03-14T01:13:54;9.55;;;2.15;;
14736;SDS011;7459;53.590;10.062;2023-03-14T01:16:21;10.90;;;2.17;;
14736;SDS011;7459;53.590;10.062;2023-03-14T01:18:48;8.88;;;1.65;;
14736;SDS011;7459;53.590;10.062;2023-03-14T01:21:19;6.97;;;1.50;;
14736;SDS011;7459;53.590;10.062;2023-03-14T01:23:48;11.90;;;2.22;;
14736;SDS011;7459;53.590;10.062;2023-03-14T01:26:15;6.03;;;1.80;;
14736;SDS011;7459;53.590;10.062;2023-03-14T01:28:44;7.20;;;1.47;;
14736;SDS011;7459;53.590;10.062;2023-03-14T01:31:11;6.78;;;1.48;;
14736;SDS011;7459;53.590;10.062;2023-03-14T01:33:38;6.93;;;1.52;;
14736;SDS011;7459;53.590;10.062;2023-03-14T01:36:05;12.27;;;2.20;;
14736;SDS011;7459;53.590;10.062;2023-03-14T01:38:32;6.28;;;1.70;;
14736;SDS011;7459;53.590;10.062;2023-03-14T01:41:00;6.90;;;1.80;;
14736;SDS011;7459;53.590;10.062;2023-03-14T01:43:27;7.10;;;1.60;;
14736;SDS011;7459;53.590;10.062;2023-03-14T01:48:31;6.32;;;1.20;;
14736;SDS011;7459;53.590;10.062;2023-03-14T01:51:04;6.05;;;1.80;;
14736;SDS011;7459;53.590;10.062;2023-03-14T01:53:40;6.27;;;1.70;;
14736;SDS011;7459;53.590;10.062;2023-03-14T01:56:08;9.90;;;2.13;;
14736;SDS011;7459;53.590;10.062;2023-03-14T01:58:36;8.52;;;2.03;;
14736;SDS011;7459;53.590;10.062;2023-03-14T02:01:04;7.05;;;1.55;;
14736;SDS011;7459;53.590;10.062;2023-03-14T02:03:31;9.45;;;1.52;;
14736;SDS011;7459;53.590;10.062;2023-03-14T02:06:07;11.27;;;1.40;;
14736;SDS011;7459;53.590;10.062;2023-03-14T02:08:33;6.93;;;1.50;;
14736;SDS011;7459;53.590;10.062;2023-03-14T02:11:02;6.35;;;1.30;;
14736;SDS011;7459;53.590;10.062;2023-03-14T02:13:29;7.10;;;1.83;;
14736;SDS011;7459;53.590;10.062;2023-03-14T02:15:55;5.57;;;1.50;;
14736;SDS011;7459;53.590;10.062;2023-03-14T02:18:20;7.82;;;2.15;;
14736;SDS011;7459;53.590;10.062;2023-03-14T02:23:31;4.50;;;2.10;;
14736;SDS011;7459;53.590;10.062;2023-03-14T02:28:57;11.25;;;2.00;;
14736;SDS011;7459;53.590;10.062;2023-03-14T02:31:23;9.05;;;2.28;;
14736;SDS011;7459;53.590;10.062;2023-03-14T02:33:49;9.07;;;1.70;;
14736;SDS011;7459;53.590;10.062;2023-03-14T02:36:16;8.05;;;2.70;;
14736;SDS011;7459;53.590;10.062;2023-03-14T02:41:46;6.38;;;1.73;;
14736;SDS011;7459;53.590;10.062;2023-03-14T02:44:14;7.20;;;1.75;;
14736;SDS011;7459;53.590;10.062;2023-03-14T02:46:40;7.47;;;1.60;;
14736;SDS011;7459;53.590;10.062;2023-03-14T02:49:10;8.75;;;2.30;;
14736;SDS011;7459;53.590;10.062;2023-03-14T02:51:39;5.93;;;1.70;;
14736;SDS011;7459;53.590;10.062;2023-03-14T02:54:06;7.28;;;2.45;;
14736;SDS011;7459;53.590;10.062;2023-03-14T02:56:32;5.70;;;2.03;;
14736;SDS011;7459;53.590;10.062;2023-03-14T02:58:58;10.60;;;2.10;;
14736;SDS011;7459;53.590;10.062;2023-03-14T03:01:24;8.63;;;2.30;;
14736;SDS011;7459;53.590;10.062;2023-03-14T03:03:50;7.90;;;2.40;;
14736;SDS011;7459;53.590;10.062;2023-03-14T03:06:16;5.97;;;2.20;;
14736;SDS011;7459;53.590;10.062;2023-03-14T03:08:41;10.55;;;2.40;;
14736;SDS011;7459;53.590;10.062;2023-03-14T03:11:07;6.20;;;2.33;;
14736;SDS011;7459;53.590;10.062;2023-03-14T03:13:33;8.82;;;2.45;;
14736;SDS011;7459;53.590;10.062;2023-03-14T03:15:59;8.95;;;2.10;;
14736;SDS011;7459;53.590;10.062;2023-03-14T03:18:25;7.00;;;1.80;;
14736;SDS011;7459;53.590;10.062;2023-03-14T03:20:51;5.93;;;1.73;;
14736;SDS011;7459;53.590;10.062;2023-03-14T03:23:17;7.10;;;1.90;;
14736;SDS011;7459;53.590;10.062;2023-03-14T03:25:47;5.82;;;1.90;;
14736;SDS011;7459;53.590;10.062;2023-03-14T03:28:16;5.97;;;1.73;;
14736;SDS011;7459;53.590;10.062;2023-03-14T03:30:43;7.60;;;2.57;;
14736;SDS011;7459;53.590;10.062;2023-03-14T03:33:11;8.48;;;2.22;;
14736;SDS011;7459;53.590;10.062;2023-03-14T03:35:44;10.20;;;2.75;;
14736;SDS011;7459;53.590;10.062;2023-03-14T03:38:12;8.30;;;1.75;;
14736;SDS011;7459;53.590;10.062;2023-03-14T03:40:37;6.23;;;1.97;;
14736;SDS011;7459;53.590;10.062;2023-03-14T03:43:03;8.98;;;2.10;;
14736;SDS011;7459;53.590;10.062;2023-03-14T03:45:29;9.80;;;1.95;;
14736;SDS011;7459;53.590;10.062;2023-03-14T03:47:55;9.70;;;1.93;;
14736;SDS011;7459;53.590;10.062;2023-03-14T03:50:21;6.72;;;1.85;;
14736;SDS011;7459;53.590;10.062;2023-03-14T03:52:47;9.27;;;2.10;;
14736;SDS011;7459;53.590;10.062;2023-03-14T03:55:12;10.03;;;1.73;;
14736;SDS011;7459;53.590;10.062;2023-03-14T03:57:38;6.40;;;1.70;;
14736;SDS011;7459;53.590;10.062;2023-03-14T04:00:04;7.83;;;2.20;;
14736;SDS011;7459;53.590;10.062;2023-03-14T04:02:32;8.85;;;1.60;;
14736;SDS011;7459;53.590;10.062;2023-03-14T04:04:57;12.20;;;2.27;;
14736;SDS011;7459;53.590;10.062;2023-03-14T04:07:23;7.10;;;1.50;;
14736;SDS011;7459;53.590;10.062;2023-03-14T04:09:49;7.40;;;2.10;;
14736;SDS011;7459;53.590;10.062;2023-03-14T04:12:14;9.70;;;2.28;;
14736;SDS011;7459;53.590;10.062;2023-03-14T04:14:40;5.83;;;2.60;;
14736;SDS011;7459;53.590;10.062;2023-03-14T04:17:06;4.65;;;1.63;;
14736;SDS011;7459;53.590;10.062;2023-03-14T04:19:32;7.03;;;1.60;;
14736;SDS011;7459;53.590;10.062;2023-03-14T04:21:58;6.30;;;2.23;;
14736;SDS011;7459;53.590;10.062;2023-03-14T04:24:23;5.93;;;1.75;;
14736;SDS011;7459;53.590;10.062;2023-03-14T04:26:49;5.70;;;1.63;;
14736;SDS011;7459;53.590;10.062;2023-03-14T04:29:15;7.50;;;1.90;;
14736;SDS011;7459;53.590;10.062;2023-03-14T04:31:40;7.13;;;1.60;;
14736;SDS011;7459;53.590;10.062;2023-03-14T04:34:06;8.27;;;1.67;;
14736;SDS011;7459;53.590;10.062;2023-03-14T04:36:32;7.90;;;2.53;;
14736;SDS011;7459;53.590;10.062;2023-03-14T04:38:57;8.23;;;1.60;;
14736;SDS011;7459;53.590;10.062;2023-03-14T04:41:23;5.23;;;1.93;;
14736;SDS011;7459;53.590;10.062;2023-03-14T04:43:49;7.33;;;2.03;;
14736;SDS011;7459;53.590;10.062;2023-03-14T04:46:14;7.67;;;2.17;;
14736;SDS011;7459;53.590;10.062;2023-03-14T04:48:40;8.43;;;1.88;;
14736;SDS011;7459;53.590;10.062;2023-03-14T04:51:06;6.97;;;2.00;;
14736;SDS011;7459;53.590;10.062;2023-03-14T04:53:32;6.78;;;2.00;;
14736;SDS011;7459;53.590;10.062;2023-03-14T04:55:59;9.50;;;2.42;;
14736;SDS011;7459;53.590;10.062;2023-03-14T04:58:24;5.37;;;2.27;;
14736;SDS011;7459;53.590;10.062;2023-03-14T05:00:50;7.30;;;2.33;;
14736;SDS011;7459;53.590;10.062;2023-03-14T05:03:16;10.80;;;2.43;;
14736;SDS011;7459;53.590;10.062;2023-03-14T05:05:43;9.98;;;2.38;;
14736;SDS011;7459;53.590;10.062;2023-03-14T05:08:09;5.97;;;1.85;;
14736;SDS011;7459;53.590;10.062;2023-03-14T05:10:35;7.80;;;1.90;;
14736;SDS011;7459;53.590;10.062;2023-03-14T05:13:01;5.63;;;1.50;;
14736;SDS011;7459;53.590;10.062;2023-03-14T05:15:27;7.10;;;1.60;;
14736;SDS011;7459;53.590;10.062;2023-03-14T05:17:53;7.40;;;1.80;;
14736;SDS011;7459;53.590;10.062;2023-03-14T05:20:21;5.82;;;1.20;;
14736;SDS011;7459;53.590;10.062;2023-03-14T05:22:47;4.38;;;1.27;;
14736;SDS011;7459;53.590;10.062;2023-03-14T05:25:13;4.53;;;1.43;;
14736;SDS011;7459;53.590;10.062;2023-03-14T05:27:39;6.25;;;1.52;;
14736;SDS011;7459;53.590;10.062;2023-03-14T05:30:05;4.97;;;1.50;;
14736;SDS011;7459;53.590;10.062;2023-03-14T05:32:31;6.20;;;2.47;;
14736;SDS011;7459;53.590;10.062;2023-03-14T05:34:57;5.32;;;1.25;;
14736;SDS011;7459;53.590;10.062;2023-03-14T05:37:27;4.95;;;1.10;;
14736;SDS011;7459;53.590;10.062;2023-03-14T05:39:53;6.00;;;1.30;;
14736;SDS011;7459;53.590;10.062;2023-03-14T05:42:18;5.78;;;1.30;;
14736;SDS011;7459;53.590;10.062;2023-03-14T05:44:44;4.75;;;1.55;;
14736;SDS011;7459;53.590;10.062;2023-03-14T05:47:10;6.80;;;2.00;;
14736;SDS011;7459;53.590;10.062;2023-03-14T05:49:36;5.75;;;2.00;;
14736;SDS011;7459;53.590;10.062;2023-03-14T05:52:02;6.63;;;1.53;;
14736;SDS011;7459;53.590;10.062;2023-03-14T05:54:28;6.30;;;1.53;;
14736;SDS011;7459;53.590;10.062;2023-03-14T05:56:53;5.30;;;1.73;;
14736;SDS011;7459;53.590;10.062;2023-03-14T05:59:19;4.93;;;1.80;;
14736;SDS011;7459;53.590;10.062;2023-03-14T06:01:44;5.03;;;1.80;;
14736;SDS011;7459;53.590;10.062;2023-03-14T06:04:10;5.20;;;1.92;;
14736;SDS011;7459;53.590;10.062;2023-03-14T06:06:36;6.60;;;1.87;;
14736;SDS011;7459;53.590;10.062;2023-03-14T06:09:02;10.85;;;2.40;;
14736;SDS011;7459;53.590;10.062;2023-03-14T06:11:27;8.35;;;2.45;;
14736;SDS011;7459;53.590;10.062;2023-03-14T06:13:53;7.03;;;2.60;;
14736;SDS011;7459;53.590;10.062;2023-03-14T06:16:19;5.53;;;2.28;;
14736;SDS011;7459;53.590;10.062;2023-03-14T06:18:44;7.80;;;2.80;;
14736;SDS011;7459;53.590;10.062;2023-03-14T06:21:14;11.20;;;3.28;;
14736;SDS011;7459;53.590;10.062;2023-03-14T06:23:40;10.27;;;3.85;;
14736;SDS011;7459;53.590;10.062;2023-03-14T06:26:06;8.13;;;3.10;;
14736;SDS011;7459;53.590;10.062;2023-03-14T06:28:31;6.88;;;3.30;;
14736;SDS011;7459;53.590;10.062;2023-03-14T06:30:58;7.40;;;3.30;;
14736;SDS011;7459;53.590;10.062;2023-03-14T06:33:24;9.32;;;3.10;;
14736;SDS011;7459;53.590;10.062;2023-03-14T06:35:50;13.65;;;3.35;;
14736;SDS011;7459;53.590;10.062;2023-03-14T06:38:16;7.47;;;2.87;;
14736;SDS011;7459;53.590;10.062;2023-03-14T06:40:41;11.00;;;2.23;;
14736;SDS011;7459;53.590;10.062;2023-03-14T06:43:07;10.00;;;3.40;;
14736;SDS011;7459;53.590;10.062;2023-03-14T06:45:33;8.13;;;2.57;;
14736;SDS011;7459;53.590;10.062;2023-03-14T06:47:58;9.82;;;2.30;;
14736;SDS011;7459;53.590;10.062;2023-03-14T06:50:24;6.40;;;2.83;;
14736;SDS011;7459;53.590;10.062;2023-03-14T06:52:50;7.20;;;2.58;;
14736;SDS011;7459;53.590;10.062;2023-03-14T06:55:15;9.60;;;2.80;;
14736;SDS011;7459;53.590;10.062;2023-03-14T06:57:41;6.13;;;2.20;;
14736;SDS011;7459;53.590;10.062;2023-03-14T07:00:09;6.05;;;2.20;;
14736;SDS011;7459;53.590;10.062;2023-03-14T07:02:36;6.13;;;2.10;;
14736;SDS011;7459;53.590;10.062;2023-03-14T07:05:02;7.57;;;2.20;;
14736;SDS011;7459;53.590;10.062;2023-03-14T07:07:28;5.63;;;2.13;;
14736;SDS011;7459;53.590;10.062;2023-03-14T07:09:54;5.85;;;2.20;;
14736;SDS011;7459;53.590;10.062;2023-03-14T07:12:20;8.07;;;2.10;;
14736;SDS011;7459;53.590;10.062;2023-03-14T07:14:45;9.82;;;2.20;;
14736;SDS011;7459;53.590;10.062;2023-03-14T07:17:11;5.97;;;2.03;;
14736;SDS011;7459;53.590;10.062;2023-03-14T07:19:37;6.50;;;1.85;;
14736;SDS011;7459;53.590;10.062;2023-03-14T07:22:03;7.70;;;1.90;;
14736;SDS011;7459;53.590;10.062;2023-03-14T07:24:31;4.72;;;1.80;;
14736;SDS011;7459;53.590;10.062;2023-03-14T07:26:57;7.10;;;1.20;;
14736;SDS011;7459;53.590;10.062;2023-03-14T07:29:23;4.78;;;1.70;;
14736;SDS011;7459;53.590;10.062;2023-03-14T07:31:48;6.23;;;1.60;;
14736;SDS011;7459;53.590;10.062;2023-03-14T07:34:14;7.53;;;1.23;;
14736;SDS011;7459;53.590;10.062;2023-03-14T07:36:40;6.25;;;1.10;;
14736;SDS011;7459;53.590;10.062;2023-03-14T07:39:06;7.33;;;1.53;;
14736;SDS011;7459;53.590;10.062;2023-03-14T07:41:32;6.18;;;1.63;;
14736;SDS011;7459;53.590;10.062;2023-03-14T07:43:58;4.97;;;1.77;;
14736;SDS011;7459;53.590;10.062;2023-03-14T07:46:23;6.43;;;2.27;;
14736;SDS011;7459;53.590;10.062;2023-03-14T07:48:49;5.75;;;1.58;;
14736;SDS011;7459;53.590;10.062;2023-03-14T07:51:15;7.43;;;1.53;;
14736;SDS011;7459;53.590;10.062;2023-03-14T07:53:41;6.28;;;1.50;;
14736;SDS011;7459;53.590;10.062;2023-03-14T07:56:08;6.28;;;1.60;;
14736;SDS011;7459;53.590;10.062;2023-03-14T07:58:34;6.80;;;1.43;;
14736;SDS011;7459;53.590;10.062;2023-03-14T08:00:59;5.70;;;1.23;;
14736;SDS011;7459;53.590;10.062;2023-03-14T08:03:25;4.43;;;1.50;;
14736;SDS011;7459;53.590;10.062;2023-03-14T08:05:51;5.90;;;1.40;;
14736;SDS011;7459;53.590;10.062;2023-03-14T08:08:17;7.70;;;1.60;;
14736;SDS011;7459;53.590;10.062;2023-03-14T08:10:43;6.18;;;1.15;;
14736;SDS011;7459;53.590;10.062;2023-03-14T08:13:09;7.32;;;1.00;;
14736;SDS011;7459;53.590;10.062;2023-03-14T08:15:35;4.10;;;1.08;;
14736;SDS011;7459;53.590;10.062;2023-03-14T08:18:01;3.30;;;1.03;;
14736;SDS011;7459;53.590;10.062;2023-03-14T08:20:28;3.92;;;1.00;;
14736;SDS011;7459;53.590;10.062;2023-03-14T08:22:58;6.78;;;1.10;;
14736;SDS011;7459;53.590;10.062;2023-03-14T08:25:25;3.92;;;1.00;;
14736;SDS011;7459;53.590;10.062;2023-03-14T08:27:52;3.75;;;0.95;;
14736;SDS011;7459;53.590;10.062;2023-03-14T08:30:19;4.20;;;1.10;;
14736;SDS011;7459;53.590;10.062;2023-03-14T08:32:46;5.10;;;1.17;;
14736;SDS011;7459;53.590;10.062;2023-03-14T08:35:12;3.85;;;1.38;;
14736;SDS011;7459;53.590;10.062;2023-03-14T08:37:38;5.30;;;1.67;;
14736;SDS011;7459;53.590;10.062;2023-03-14T08:40:05;4.63;;;1.05;;
14736;SDS011;7459;53.590;10.062;2023-03-14T08:42:33;5.13;;;1.37;;
14736;SDS011;7459;53.590;10.062;2023-03-14T08:44:59;5.60;;;1.20;;
14736;SDS011;7459;53.590;10.062;2023-03-14T08:47:25;5.20;;;1.50;;
14736;SDS011;7459;53.590;10.062;2023-03-14T08:49:51;5.37;;;1.30;;
14736;SDS011;7459;53.590;10.062;2023-03-14T08:52:17;7.03;;;1.50;;
14736;SDS011;7459;53.590;10.062;2023-03-14T08:54:46;6.65;;;1.80;;
14736;SDS011;7459;53.590;10.062;2023-03-14T08:57:12;6.53;;;1.83;;
14736;SDS011;7459;53.590;10.062;2023-03-14T08:59:38;6.88;;;1.45;;
14736;SDS011;7459;53.590;10.062;2023-03-14T09:02:04;8.80;;;1.80;;
14736;SDS011;7459;53.590;10.062;2023-03-14T09:04:30;10.85;;;2.33;;
14736;SDS011;7459;53.590;10.062;2023-03-14T09:06:57;5.97;;;2.22;;
14736;SDS011;7459;53.590;10.062;2023-03-14T09:09:24;4.47;;;1.60;;
14736;SDS011;7459;53.590;10.062;2023-03-14T09:11:53;6.18;;;2.00;;
14736;SDS011;7459;53.590;10.062;2023-03-14T09:14:19;7.53;;;2.43;;
14736;SDS011;7459;53.590;10.062;2023-03-14T09:16:45;7.97;;;2.50;;
14736;SDS011;7459;53.590;10.062;2023-03-14T09:19:10;9.57;;;2.27;;
14736;SDS011;7459;53.590;10.062;2023-03-14T09:21:36;6.25;;;2.55;;
14736;SDS011;7459;53.590;10.062;2023-03-14T09:24:03;8.73;;;2.17;;
14736;SDS011;7459;53.590;10.062;2023-03-14T09:26:30;6.78;;;2.40;;
14736;SDS011;7459;53.590;10.062;2023-03-14T09:28:56;9.55;;;2.92;;
14736;SDS011;7459;53.590;10.062;2023-03-14T09:31:22;9.27;;;2.72;;
14736;SDS011;7459;53.590;10.062;2023-03-14T09:33:47;5.97;;;2.10;;
14736;SDS011;7459;53.590;10.062;2023-03-14T09:36:13;9.18;;;2.80;;
14736;SDS011;7459;53.590;10.062;2023-03-14T09:38:39;5.87;;;1.90;;
14736;SDS011;7459;53.590;10.062;2023-03-14T09:41:13;6.30;;;2.10;;
14736;SDS011;7459;53.590;10.062;2023-03-14T09:43:52;8.77;;;2.30;;
14736;SDS011;7459;53.590;10.062;2023-03-14T09:46:36;5.83;;;2.00;;
14736;SDS011;7459;53.590;10.062;2023-03-14T09:49:17;5.03;;;2.13;;
14736;SDS011;7459;53.590;10.062;2023-03-14T09:51:47;6.53;;;2.30;;
14736;SDS011;7459;53.590;10.062;2023-03-14T09:54:50;6.03;;;2.00;;
14736;SDS011;7459;53.590;10.062;2023-03-14T09:57:14;5.50;;;1.00;;
14736;SDS011;7459;53.590;10.062;2023-03-14T09:59:44;3.23;;;0.77;;
14736;SDS011;7459;53.590;10.062;2023-03-14T10:04:54;2.58;;;0.50;;
14736;SDS011;7459;53.590;10.062;2023-03-14T10:09:57;2.67;;;0.50;;
14736;SDS011;7459;53.590;10.062;2023-03-14T10:12:35;2.85;;;0.40;;
14736;SDS011;7459;53.590;10.062;2023-03-14T10:15:05;4.10;;;0.80;;
14736;SDS011;7459;53.590;10.062;2023-03-14T10:17:38;2.88;;;0.50;;
14736;SDS011;7459;53.590;10.062;2023-03-14T10:22:59;3.92;;;0.63;;
14736;SDS011;7459;53.590;10.062;2023-03-14T10:25:33;2.35;;;0.50;;
14736;SDS011;7459;53.590;10.062;2023-03-14T10:28:02;2.30;;;0.22;;
14736;SDS011;7459;53.590;10.062;2023-03-14T10:30:33;2.20;;;0.68;;
14736;SDS011;7459;53.590;10.062;2023-03-14T10:33:10;2.40;;;0.40;;
14736;SDS011;7459;53.590;10.062;2023-03-14T10:35:52;4.10;;;0.55;;
14736;SDS011;7459;53.590;10.062;2023-03-14T10:38:22;2.47;;;1.13;;
14736;SDS011;7459;53.590;10.062;2023-03-14T10:40:51;1.35;;;0.32;;
14736;SDS011;7459;53.590;10.062;2023-03-14T10:43:21;1.60;;;0.50;;
14736;SDS011;7459;53.590;10.062;2023-03-14T10:45:58;2.17;;;0.50;;
14736;SDS011;7459;53.590;10.062;2023-03-14T10:48:37;2.00;;;0.73;;
14736;SDS011;7459;53.590;10.062;2023-03-14T10:53:45;1.30;;;0.45;;
14736;SDS011;7459;53.590;10.062;2023-03-14T10:56:26;2.05;;;0.35;;
14736;SDS011;7459;53.590;10.062;2023-03-14T10:58:58;1.95;;;0.40;;
14736;SDS011;7459;53.590;10.062;2023-03-14T11:07:42;0.93;;;0.38;;
14736;SDS011;7459;53.590;10.062;2023-03-14T11:21:41;1.92;;;0.68;;
14736;SDS011;7459;53.590;10.062;2023-03-14T11:27:34;3.45;;;0.60;;
14736;SDS011;7459;53.590;10.062;2023-03-14T11:33:28;1.80;;;0.47;;
14736;SDS011;7459;53.590;10.062;2023-03-14T11:36:06;2.70;;;0.60;;
14736;SDS011;7459;53.590;10.062;2023-03-14T11:38:50;3.03;;;0.40;;
14736;SDS011;7459;53.590;10.062;2023-03-14T11:41:36;3.22;;;0.30;;
14736;SDS011;7459;53.590;10.062;2023-03-14T11:47:15;5.38;;;0.55;;
14736;SDS011;7459;53.590;10.062;2023-03-14T11:49:54;3.22;;;0.40;;
14736;SDS011;7459;53.590;10.062;2023-03-14T11:52:46;5.95;;;0.55;;
14736;SDS011;7459;53.590;10.062;2023-03-14T11:55:19;3.17;;;0.50;;
14736;SDS011;7459;53.590;10.062;2023-03-14T11:57:53;3.03;;;0.60;;
14736;SDS011;7459;53.590;10.062;2023-03-14T12:00:25;3.97;;;0.77;;
14736;SDS011;7459;53.590;10.062;2023-03-14T12:03:09;7.30;;;0.70;;
14736;SDS011;7459;53.590;10.062;2023-03-14T12:14:18;8.23;;;1.05;;
14736;SDS011;7459;53.590;10.062;2023-03-14T12:20:32;2.38;;;1.08;;
14736;SDS011;7459;53.590;10.062;2023-03-14T12:25:28;5.97;;;0.88;;
14736;SDS011;7459;53.590;10.062;2023-03-14T12:28:12;5.72;;;0.90;;
14736;SDS011;7459;53.590;10.062;2023-03-14T12:30:55;6.72;;;0.70;;
14736;SDS011;7459;53.590;10.062;2023-03-14T12:33:27;5.73;;;1.03;;
14736;SDS011;7459;53.590;10.062;2023-03-14T12:35:59;6.43;;;1.42;;
14736;SDS011;7459;53.590;10.062;2023-03-14T12:43:35;6.77;;;1.00;;
14736;SDS011;7459;53.590;10.062;2023-03-14T12:46:14;8.52;;;0.60;;
14736;SDS011;7459;53.590;10.062;2023-03-14T12:48:49;9.05;;;1.27;;
14736;SDS011;7459;53.590;10.062;2023-03-14T12:51:28;6.25;;;1.33;;
14736;SDS011;7459;53.590;10.062;2023-03-14T12:54:46;7.20;;;0.85;;
14736;SDS011;7459;53.590;10.062;2023-03-14T12:59:28;5.32;;;0.80;;
14736;SDS011;7459;53.590;10.062;2023-03-14T13:02:02;4.90;;;0.85;;
14736;SDS011;7459;53.590;10.062;2023-03-14T13:07:01;5.55;;;0.77;;
14736;SDS011;7459;53.590;10.062;2023-03-14T13:11:54;6.32;;;0.90;;
14736;SDS011;7459;53.590;10.062;2023-03-14T13:14:22;6.50;;;0.85;;
14736;SDS011;7459;53.590;10.062;2023-03-14T13:16:48;6.40;;;0.80;;
14736;SDS011;7459;53.590;10.062;2023-03-14T13:19:24;8.40;;;1.13;;
14736;SDS011;7459;53.590;10.062;2023-03-14T13:22:00;7.68;;;1.35;;
14736;SDS011;7459;53.590;10.062;2023-03-14T13:24:32;9.38;;;1.40;;
14736;SDS011;7459;53.590;10.062;2023-03-14T13:26:59;8.82;;;1.33;;
14736;SDS011;7459;53.590;10.062;2023-03-14T13:29:26;5.33;;;1.10;;
14736;SDS011;7459;53.590;10.062;2023-03-14T13:31:56;9.55;;;1.17;;
14736;SDS011;7459;53.590;10.062;2023-03-14T13:34:35;11.48;;;1.55;;
14736;SDS011;7459;53.590;10.062;2023-03-14T13:37:01;6.87;;;1.60;;
14736;SDS011;7459;53.590;10.062;2023-03-14T13:39:27;12.63;;;1.30;;
14736;SDS011;7459;53.590;10.062;2023-03-14T13:41:55;7.97;;;0.93;;
14736;SDS011;7459;53.590;10.062;2023-03-14T13:44:25;8.25;;;1.13;;
14736;SDS011;7459;53.590;10.062;2023-03-14T13:47:00;9.77;;;0.90;;
14736;SDS011;7459;53.590;10.062;2023-03-14T13:49:29;5.78;;;1.02;;
14736;SDS011;7459;53.590;10.062;2023-03-14T13:51:58;8.18;;;1.00;;
14736;SDS011;7459;53.590;10.062;2023-03-14T13:54:25;5.60;;;0.77;;
14736;SDS011;7459;53.590;10.062;2023-03-14T13:56:58;6.80;;;0.80;;
14736;SDS011;7459;53.590;10.062;2023-03-14T13:59:30;7.53;;;0.90;;
14736;SDS011;7459;53.590;10.062;2023-03-14T14:02:00;3.65;;;0.80;;
14736;SDS011;7459;53.590;10.062;2023-03-14T14:04:38;8.73;;;0.70;;
14736;SDS011;7459;53.590;10.062;2023-03-14T14:07:07;8.77;;;1.00;;
14736;SDS011;7459;53.590;10.062;2023-03-14T14:09:39;4.68;;;0.70;;
14736;SDS011;7459;53.590;10.062;2023-03-14T14:14:40;8.82;;;0.80;;
14736;SDS011;7459;53.590;10.062;2023-03-14T14:17:14;12.85;;;0.90;;
14736;SDS011;7459;53.590;10.062;2023-03-14T14:19:44;6.17;;;0.87;;
14736;SDS011;7459;53.590;10.062;2023-03-14T14:22:12;9.80;;;0.80;;
14736;SDS011;7459;53.590;10.062;2023-03-14T14:24:38;4.85;;;1.70;;
14736;SDS011;7459;53.590;10.062;2023-03-14T14:27:13;5.32;;;0.70;;
14736;SDS011;7459;53.590;10.062;2023-03-14T14:30:00;3.63;;;0.57;;
14736;SDS011;7459;53.590;10.062;2023-03-14T14:32:34;7.83;;;0.73;;
14736;SDS011;7459;53.590;10.062;2023-03-14T14:35:02;8.48;;;1.05;;
14736;SDS011;7459;53.590;10.062;2023-03-14T14:37:32;9.80;;;0.80;;
14736;SDS011;7459;53.590;10.062;2023-03-14T14:40:01;8.57;;;1.42;;
14736;SDS011;7459;53.590;10.062;2023-03-14T14:42:41;9.35;;;1.40;;
14736;SDS011;7459;53.590;10.062;2023-03-14T14:45:11;5.50;;;1.43;;
14736;SDS011;7459;53.590;10.062;2023-03-14T14:47:55;5.85;;;1.00;;
14736;SDS011;7459;53.590;10.062;2023-03-14T14:50:38;2.58;;;0.57;;
14736;SDS011;7459;53.590;10.062;2023-03-14T14:56:18;9.48;;;1.00;;
14736;SDS011;7459;53.590;10.062;2023-03-14T14:58:50;3.17;;;0.43;;
14736;SDS011;7459;53.590;10.062;2023-03-14T15:01:22;4.82;;;0.75;;
14736;SDS011;7459;53.590;10.062;2023-03-14T15:03:50;8.10;;;0.63;;
14736;SDS011;7459;53.590;10.062;2023-03-14T15:06:18;4.15;;;0.90;;
14736;SDS011;7459;53.590;10.062;2023-03-14T15:08:45;4.90;;;0.60;;
14736;SDS011;7459;53.590;10.062;2023-03-14T15:11:17;7.03;;;1.27;;
14736;SDS011;7459;53.590;10.062;2023-03-14T15:13:47;4.60;;;0.73;;
14736;SDS011;7459;53.590;10.062;2023-03-14T15:16:17;6.45;;;0.90;;
14736;SDS011;7459;53.590;10.062;2023-03-14T15:18:56;4.95;;;0.85;;
14736;SDS011;7459;53.590;10.062;2023-03-14T15:21:24;7.47;;;1.10;;
14736;SDS011;7459;53.590;10.062;2023-03-14T15:23:52;10.13;;;0.95;;
14736;SDS011;7459;53.590;10.062;2023-03-14T15:26:19;9.20;;;1.20;;
14736;SDS011;7459;53.590;10.062;2023-03-14T15:28:47;7.07;;;1.00;;
14736;SDS011;7459;53.590;10.062;2023-03-14T15:31:14;7.47;;;0.93;;
14736;SDS011;7459;53.590;10.062;2023-03-14T15:33:42;7.63;;;1.05;;
14736;SDS011;7459;53.590;10.062;2023-03-14T15:36:20;6.88;;;1.05;;
14736;SDS011;7459;53.590;10.062;2023-03-14T15:38:50;5.47;;;0.80;;
14736;SDS011;7459;53.590;10.062;2023-03-14T15:41:17;5.90;;;0.70;;
14736;SDS011;7459;53.590;10.062;2023-03-14T15:43:43;5.80;;;1.35;;
14736;SDS011;7459;53.590;10.062;2023-03-14T15:46:10;7.88;;;1.08;;
14736;SDS011;7459;53.590;10.062;2023-03-14T15:48:36;7.40;;;1.13;;
14736;SDS011;7459;53.590;10.062;2023-03-14T15:51:02;6.85;;;0.85;;
14736;SDS011;7459;53.590;10.062;2023-03-14T15:53:28;6.43;;;0.80;;
14736;SDS011;7459;53.590;10.062;2023-03-14T15:55:54;4.53;;;0.68;;
14736;SDS011;7459;53.590;10.062;2023-03-14T15:58:20;14.57;;;1.27;;
14736;SDS011;7459;53.590;10.062;2023-03-14T16:00:46;11.77;;;1.10;;
14736;SDS011;7459;53.590;10.062;2023-03-14T16:03:12;7.13;;;0.93;;
14736;SDS011;7459;53.590;10.062;2023-03-14T16:05:38;8.48;;;1.55;;
14736;SDS011;7459;53.590;10.062;2023-03-14T16:08:05;13.50;;;0.82;;
14736;SDS011;7459;53.590;10.062;2023-03-14T16:10:31;5.95;;;0.95;;
14736;SDS011;7459;53.590;10.062;2023-03-14T16:12:57;7.45;;;1.10;;
14736;SDS011;7459;53.590;10.062;2023-03-14T16:15:24;5.13;;;1.35;;